sensor_id;sensor_type;location;lat;lon;timestamp;P1;durP1;ratioP1;P2;durP2;ratioP2
74650;SDS011;63169;46.042;14.592;2024-01-15T00:02:08;15.75;;;7.53;;
74650;SDS011;63169;46.042;14.592;2024-01-15T00:04:37;13.48;;;9.25;;
74650;SDS011;63169;46.042;14.592;2024-01-15T00:07:06;16.13;;;6.57;;
74650;SDS011;63169;46.042;14.592;2024-01-15T00:09:32;12.60;;;8.45;;
74650;SDS011;63169;46.042;14.592;2024-01-15T00:11:58;16.98;;;9.57;;
74650;SDS011;63169;46.042;14.592;2024-01-15T00:14:24;11.10;;;7.07;;
74650;SDS011;63169;46.042;14.592;2024-01-15T00:16:49;15.35;;;7.82;;
74650;SDS011;63169;46.042;14.592;2024-01-15T00:19:16;17.63;;;9.52;;
74650;SDS011;63169;46.042;14.592;2024-01-15T00:21:42;14.07;;;8.88;;
74650;SDS011;63169;46.042;14.592;2024-01-15T00:24:08;12.85;;;6.43;;
74650;SDS011;63169;46.042;14.592;2024-01-15T00:26:33;13.65;;;7.35;;
74650;SDS011;63169;46.042;14.592;2024-01-15T00:28:59;12.88;;;7.68;;
74650;SDS011;63169;46.042;14.592;2024-01-15T00:31:24;16.75;;;9.30;;
74650;SDS011;63169;46.042;14.592;2024-01-15T00:33:50;11.48;;;5.75;;
74650;SDS011;63169;46.042;14.592;2024-01-15T00:36:15;14.55;;;9.40;;
74650;SDS011;63169;46.042;14.592;2024-01-15T00:38:41;18.25;;;9.80;;
74650;SDS011;63169;46.042;14.592;2024-01-15T00:41:07;12.82;;;6.95;;
74650;SDS011;63169;46.042;14.592;2024-01-15T00:43:33;12.23;;;7.07;;
74650;SDS011;63169;46.042;14.592;2024-01-15T00:46:01;13.57;;;8.00;;
74650;SDS011;63169;46.042;14.592;2024-01-15T00:48:27;15.45;;;7.90;;
74650;SDS011;63169;46.042;14.592;2024-01-15T00:50:53;11.93;;;7.00;;
74650;SDS011;63169;46.042;14.592;2024-01-15T00:53:19;13.95;;;7.40;;
74650;SDS011;63169;46.042;14.592;2024-01-15T00:55:47;11.63;;;7.00;;
74650;SDS011;63169;46.042;14.592;2024-01-15T00:58:13;13.60;;;7.90;;
74650;SDS011;63169;46.042;14.592;2024-01-15T01:00:38;15.57;;;7.80;;
74650;SDS011;63169;46.042;14.592;2024-01-15T01:03:04;18.15;;;6.93;;
74650;SDS011;63169;46.042;14.592;2024-01-15T01:05:29;12.52;;;7.45;;
74650;SDS011;63169;46.042;14.592;2024-01-15T01:07:55;12.88;;;9.40;;
74650;SDS011;63169;46.042;14.592;2024-01-15T01:10:20;14.52;;;7.65;;
74650;SDS011;63169;46.042;14.592;2024-01-15T01:12:46;12.63;;;8.02;;
74650;SDS011;63169;46.042;14.592;2024-01-15T01:15:11;14.90;;;8.00;;
74650;SDS011;63169;46.042;14.592;2024-01-15T01:17:37;15.27;;;5.70;;
74650;SDS011;63169;46.042;14.592;2024-01-15T01:20:02;18.48;;;7.47;;
74650;SDS011;63169;46.042;14.592;2024-01-15T01:24:55;14.07;;;8.02;;
74650;SDS011;63169;46.042;14.592;2024-01-15T01:27:20;16.55;;;6.88;;
74650;SDS011;63169;46.042;14.592;2024-01-15T01:29:46;15.85;;;9.05;;
74650;SDS011;63169;46.042;14.592;2024-01-15T01:32:12;17.08;;;8.73;;
74650;SDS011;63169;46.042;14.592;2024-01-15T01:34:40;12.30;;;6.50;;
74650;SDS011;63169;46.042;14.592;2024-01-15T01:37:09;18.60;;;9.10;;
74650;SDS011;63169;46.042;14.592;2024-01-15T01:39:35;15.75;;;9.75;;
74650;SDS011;63169;46.042;14.592;2024-01-15T01:42:00;17.83;;;8.65;;
74650;SDS011;63169;46.042;14.592;2024-01-15T01:44:26;13.40;;;6.43;;
74650;SDS011;63169;46.042;14.592;2024-01-15T01:46:51;14.52;;;9.07;;
74650;SDS011;63169;46.042;14.592;2024-01-15T01:49:17;15.15;;;9.18;;
74650;SDS011;63169;46.042;14.592;2024-01-15T01:51:43;17.88;;;10.98;;
74650;SDS011;63169;46.042;14.592;2024-01-15T01:54:09;14.65;;;9.07;;
74650;SDS011;63169;46.042;14.592;2024-01-15T01:56:37;14.88;;;7.50;;
74650;SDS011;63169;46.042;14.592;2024-01-15T01:59:03;18.60;;;9.35;;
74650;SDS011;63169;46.042;14.592;2024-01-15T02:01:29;17.73;;;10.65;;
74650;SDS011;63169;46.042;14.592;2024-01-15T02:03:56;14.55;;;8.02;;
74650;SDS011;63169;46.042;14.592;2024-01-15T02:06:22;14.55;;;6.70;;
74650;SDS011;63169;46.042;14.592;2024-01-15T02:08:48;17.70;;;7.88;;
74650;SDS011;63169;46.042;14.592;2024-01-15T02:11:14;15.02;;;7.45;;
74650;SDS011;63169;46.042;14.592;2024-01-15T02:13:40;17.10;;;9.23;;
74650;SDS011;63169;46.042;14.592;2024-01-15T02:16:05;18.55;;;10.90;;
74650;SDS011;63169;46.042;14.592;2024-01-15T02:18:41;14.82;;;8.25;;
74650;SDS011;63169;46.042;14.592;2024-01-15T02:21:06;12.68;;;7.20;;
74650;SDS011;63169;46.042;14.592;2024-01-15T02:23:32;14.48;;;7.90;;
74650;SDS011;63169;46.042;14.592;2024-01-15T02:25:57;15.95;;;8.25;;
74650;SDS011;63169;46.042;14.592;2024-01-15T02:28:23;13.90;;;6.50;;
74650;SDS011;63169;46.042;14.592;2024-01-15T02:30:49;13.45;;;7.80;;
74650;SDS011;63169;46.042;14.592;2024-01-15T02:33:14;13.27;;;8.27;;
74650;SDS011;63169;46.042;14.592;2024-01-15T02:35:40;16.17;;;9.02;;
74650;SDS011;63169;46.042;14.592;2024-01-15T02:38:05;14.30;;;8.90;;
74650;SDS011;63169;46.042;14.592;2024-01-15T02:40:31;15.82;;;10.32;;
74650;SDS011;63169;46.042;14.592;2024-01-15T02:42:57;16.80;;;8.35;;
74650;SDS011;63169;46.042;14.592;2024-01-15T02:45:23;18.02;;;9.52;;
74650;SDS011;63169;46.042;14.592;2024-01-15T02:47:49;16.35;;;7.55;;
74650;SDS011;63169;46.042;14.592;2024-01-15T02:50:15;15.85;;;9.00;;
74650;SDS011;63169;46.042;14.592;2024-01-15T02:52:41;15.52;;;7.55;;
74650;SDS011;63169;46.042;14.592;2024-01-15T02:55:07;18.90;;;9.02;;
74650;SDS011;63169;46.042;14.592;2024-01-15T02:57:33;14.07;;;6.43;;
74650;SDS011;63169;46.042;14.592;2024-01-15T02:59:58;14.57;;;10.55;;
74650;SDS011;63169;46.042;14.592;2024-01-15T03:02:24;16.13;;;8.10;;
74650;SDS011;63169;46.042;14.592;2024-01-15T03:04:49;15.43;;;8.55;;
74650;SDS011;63169;46.042;14.592;2024-01-15T03:07:15;10.50;;;7.03;;
74650;SDS011;63169;46.042;14.592;2024-01-15T03:09:40;12.52;;;8.25;;
74650;SDS011;63169;46.042;14.592;2024-01-15T03:12:06;16.05;;;7.40;;
74650;SDS011;63169;46.042;14.592;2024-01-15T03:14:32;14.10;;;7.07;;
74650;SDS011;63169;46.042;14.592;2024-01-15T03:16:57;13.68;;;7.93;;
74650;SDS011;63169;46.042;14.592;2024-01-15T03:19:26;13.70;;;7.90;;
74650;SDS011;63169;46.042;14.592;2024-01-15T03:21:51;15.43;;;8.00;;
74650;SDS011;63169;46.042;14.592;2024-01-15T03:24:17;15.50;;;8.63;;
74650;SDS011;63169;46.042;14.592;2024-01-15T03:26:42;13.63;;;8.10;;
74650;SDS011;63169;46.042;14.592;2024-01-15T03:29:07;14.13;;;8.30;;
74650;SDS011;63169;46.042;14.592;2024-01-15T03:31:33;11.93;;;7.22;;
74650;SDS011;63169;46.042;14.592;2024-01-15T03:33:58;10.15;;;6.47;;
74650;SDS011;63169;46.042;14.592;2024-01-15T03:36:24;9.95;;;6.22;;
74650;SDS011;63169;46.042;14.592;2024-01-15T03:38:49;11.05;;;4.32;;
74650;SDS011;63169;46.042;14.592;2024-01-15T03:41:15;14.55;;;7.40;;
74650;SDS011;63169;46.042;14.592;2024-01-15T03:43:40;12.30;;;6.75;;
74650;SDS011;63169;46.042;14.592;2024-01-15T03:46:06;12.82;;;7.57;;
74650;SDS011;63169;46.042;14.592;2024-01-15T03:48:32;15.25;;;8.43;;
74650;SDS011;63169;46.042;14.592;2024-01-15T03:50:57;10.45;;;6.03;;
74650;SDS011;63169;46.042;14.592;2024-01-15T03:53:23;12.88;;;7.72;;
74650;SDS011;63169;46.042;14.592;2024-01-15T03:55:49;11.38;;;6.05;;
74650;SDS011;63169;46.042;14.592;2024-01-15T03:58:14;11.85;;;6.07;;
74650;SDS011;63169;46.042;14.592;2024-01-15T04:00:40;12.07;;;6.72;;
74650;SDS011;63169;46.042;14.592;2024-01-15T04:03:07;10.18;;;7.15;;
74650;SDS011;63169;46.042;14.592;2024-01-15T04:05:33;10.35;;;6.22;;
74650;SDS011;63169;46.042;14.592;2024-01-15T04:07:58;10.15;;;6.70;;
74650;SDS011;63169;46.042;14.592;2024-01-15T04:10:23;10.38;;;5.45;;
74650;SDS011;63169;46.042;14.592;2024-01-15T04:12:49;9.18;;;6.43;;
74650;SDS011;63169;46.042;14.592;2024-01-15T04:15:14;9.18;;;5.80;;
74650;SDS011;63169;46.042;14.592;2024-01-15T04:17:40;10.98;;;7.93;;
74650;SDS011;63169;46.042;14.592;2024-01-15T04:20:06;8.98;;;5.88;;
74650;SDS011;63169;46.042;14.592;2024-01-15T04:22:32;8.00;;;5.60;;
74650;SDS011;63169;46.042;14.592;2024-01-15T04:24:58;9.38;;;6.65;;
74650;SDS011;63169;46.042;14.592;2024-01-15T04:27:24;12.25;;;5.68;;
74650;SDS011;63169;46.042;14.592;2024-01-15T04:29:49;13.07;;;7.93;;
74650;SDS011;63169;46.042;14.592;2024-01-15T04:32:14;11.75;;;6.40;;
74650;SDS011;63169;46.042;14.592;2024-01-15T04:34:40;9.57;;;6.45;;
74650;SDS011;63169;46.042;14.592;2024-01-15T04:37:05;14.48;;;7.00;;
74650;SDS011;63169;46.042;14.592;2024-01-15T04:39:31;9.27;;;6.72;;
74650;SDS011;63169;46.042;14.592;2024-01-15T04:41:56;13.10;;;6.82;;
74650;SDS011;63169;46.042;14.592;2024-01-15T04:44:22;11.32;;;5.68;;
74650;SDS011;63169;46.042;14.592;2024-01-15T04:46:47;9.55;;;7.00;;
74650;SDS011;63169;46.042;14.592;2024-01-15T04:49:13;11.32;;;5.72;;
74650;SDS011;63169;46.042;14.592;2024-01-15T04:51:38;9.10;;;4.82;;
74650;SDS011;63169;46.042;14.592;2024-01-15T04:54:04;8.20;;;5.88;;
74650;SDS011;63169;46.042;14.592;2024-01-15T04:56:29;13.48;;;4.60;;
74650;SDS011;63169;46.042;14.592;2024-01-15T04:58:55;8.77;;;6.07;;
74650;SDS011;63169;46.042;14.592;2024-01-15T05:01:20;10.50;;;6.57;;
74650;SDS011;63169;46.042;14.592;2024-01-15T05:03:46;9.43;;;6.10;;
74650;SDS011;63169;46.042;14.592;2024-01-15T05:06:11;9.70;;;5.80;;
74650;SDS011;63169;46.042;14.592;2024-01-15T05:08:37;7.25;;;5.18;;
74650;SDS011;63169;46.042;14.592;2024-01-15T05:11:02;12.10;;;5.75;;
74650;SDS011;63169;46.042;14.592;2024-01-15T05:13:28;11.57;;;6.38;;
74650;SDS011;63169;46.042;14.592;2024-01-15T05:15:53;11.00;;;6.13;;
74650;SDS011;63169;46.042;14.592;2024-01-15T05:18:19;10.30;;;5.00;;
74650;SDS011;63169;46.042;14.592;2024-01-15T05:20:44;10.38;;;6.20;;
74650;SDS011;63169;46.042;14.592;2024-01-15T05:23:10;6.90;;;3.28;;
74650;SDS011;63169;46.042;14.592;2024-01-15T05:25:35;10.73;;;5.70;;
74650;SDS011;63169;46.042;14.592;2024-01-15T05:28:01;11.38;;;6.15;;
74650;SDS011;63169;46.042;14.592;2024-01-15T05:30:27;9.23;;;5.88;;
74650;SDS011;63169;46.042;14.592;2024-01-15T05:32:52;12.70;;;7.13;;
74650;SDS011;63169;46.042;14.592;2024-01-15T05:35:18;10.60;;;4.63;;
74650;SDS011;63169;46.042;14.592;2024-01-15T05:37:44;14.00;;;7.05;;
74650;SDS011;63169;46.042;14.592;2024-01-15T05:40:10;12.40;;;7.00;;
74650;SDS011;63169;46.042;14.592;2024-01-15T05:42:37;10.57;;;6.05;;
74650;SDS011;63169;46.042;14.592;2024-01-15T05:45:03;13.73;;;9.05;;
74650;SDS011;63169;46.042;14.592;2024-01-15T05:47:30;11.00;;;6.88;;
74650;SDS011;63169;46.042;14.592;2024-01-15T05:49:56;12.23;;;7.10;;
74650;SDS011;63169;46.042;14.592;2024-01-15T05:52:22;14.05;;;7.95;;
74650;SDS011;63169;46.042;14.592;2024-01-15T05:54:47;10.18;;;6.68;;
74650;SDS011;63169;46.042;14.592;2024-01-15T05:57:13;15.57;;;8.68;;
74650;SDS011;63169;46.042;14.592;2024-01-15T05:59:38;12.70;;;7.45;;
74650;SDS011;63169;46.042;14.592;2024-01-15T06:02:04;8.68;;;6.22;;
74650;SDS011;63169;46.042;14.592;2024-01-15T06:04:29;9.30;;;6.28;;
74650;SDS011;63169;46.042;14.592;2024-01-15T06:06:55;8.48;;;5.80;;
74650;SDS011;63169;46.042;14.592;2024-01-15T06:09:20;9.20;;;6.50;;
74650;SDS011;63169;46.042;14.592;2024-01-15T06:11:46;11.32;;;4.30;;
74650;SDS011;63169;46.042;14.592;2024-01-15T06:14:11;9.02;;;5.53;;
74650;SDS011;63169;46.042;14.592;2024-01-15T06:16:37;10.82;;;6.30;;
74650;SDS011;63169;46.042;14.592;2024-01-15T06:19:02;8.98;;;5.57;;
74650;SDS011;63169;46.042;14.592;2024-01-15T06:21:28;10.48;;;5.90;;
74650;SDS011;63169;46.042;14.592;2024-01-15T06:23:53;11.57;;;6.90;;
74650;SDS011;63169;46.042;14.592;2024-01-15T06:26:19;7.88;;;5.63;;
74650;SDS011;63169;46.042;14.592;2024-01-15T06:28:44;10.48;;;4.43;;
74650;SDS011;63169;46.042;14.592;2024-01-15T06:31:10;13.00;;;5.53;;
74650;SDS011;63169;46.042;14.592;2024-01-15T06:33:35;11.77;;;8.90;;
74650;SDS011;63169;46.042;14.592;2024-01-15T06:36:00;13.57;;;8.82;;
74650;SDS011;63169;46.042;14.592;2024-01-15T06:38:26;13.85;;;6.60;;
74650;SDS011;63169;46.042;14.592;2024-01-15T06:40:51;13.05;;;3.83;;
74650;SDS011;63169;46.042;14.592;2024-01-15T06:43:17;13.02;;;7.45;;
74650;SDS011;63169;46.042;14.592;2024-01-15T06:45:45;8.95;;;6.45;;
74650;SDS011;63169;46.042;14.592;2024-01-15T06:48:11;11.65;;;4.47;;
74650;SDS011;63169;46.042;14.592;2024-01-15T06:50:39;11.45;;;7.03;;
74650;SDS011;63169;46.042;14.592;2024-01-15T06:53:05;15.45;;;8.13;;
74650;SDS011;63169;46.042;14.592;2024-01-15T06:55:30;9.77;;;5.68;;
74650;SDS011;63169;46.042;14.592;2024-01-15T06:57:56;13.63;;;6.72;;
74650;SDS011;63169;46.042;14.592;2024-01-15T07:00:21;10.85;;;8.73;;
74650;SDS011;63169;46.042;14.592;2024-01-15T07:02:47;10.75;;;6.63;;
74650;SDS011;63169;46.042;14.592;2024-01-15T07:05:12;11.27;;;6.93;;
74650;SDS011;63169;46.042;14.592;2024-01-15T07:07:38;13.48;;;7.03;;
74650;SDS011;63169;46.042;14.592;2024-01-15T07:10:03;13.93;;;7.40;;
74650;SDS011;63169;46.042;14.592;2024-01-15T07:12:30;12.05;;;6.35;;
74650;SDS011;63169;46.042;14.592;2024-01-15T07:14:58;11.82;;;6.85;;
74650;SDS011;63169;46.042;14.592;2024-01-15T07:17:24;11.05;;;6.93;;
74650;SDS011;63169;46.042;14.592;2024-01-15T07:19:49;12.23;;;8.13;;
74650;SDS011;63169;46.042;14.592;2024-01-15T07:22:14;15.57;;;6.18;;
74650;SDS011;63169;46.042;14.592;2024-01-15T07:24:42;9.63;;;5.47;;
74650;SDS011;63169;46.042;14.592;2024-01-15T07:27:08;12.57;;;7.65;;
74650;SDS011;63169;46.042;14.592;2024-01-15T07:29:34;15.60;;;9.65;;
74650;SDS011;63169;46.042;14.592;2024-01-15T07:32:02;17.00;;;9.07;;
74650;SDS011;63169;46.042;14.592;2024-01-15T07:34:28;19.15;;;10.45;;
74650;SDS011;63169;46.042;14.592;2024-01-15T07:36:53;15.93;;;8.60;;
74650;SDS011;63169;46.042;14.592;2024-01-15T07:39:19;19.55;;;13.10;;
74650;SDS011;63169;46.042;14.592;2024-01-15T07:41:44;25.85;;;15.57;;
74650;SDS011;63169;46.042;14.592;2024-01-15T07:44:10;23.80;;;13.25;;
74650;SDS011;63169;46.042;14.592;2024-01-15T07:46:35;19.05;;;8.35;;
74650;SDS011;63169;46.042;14.592;2024-01-15T07:49:01;14.90;;;8.82;;
74650;SDS011;63169;46.042;14.592;2024-01-15T07:51:27;24.30;;;13.20;;
74650;SDS011;63169;46.042;14.592;2024-01-15T07:53:53;21.52;;;11.65;;
74650;SDS011;63169;46.042;14.592;2024-01-15T07:56:20;21.63;;;11.98;;
74650;SDS011;63169;46.042;14.592;2024-01-15T07:58:46;18.90;;;12.20;;
74650;SDS011;63169;46.042;14.592;2024-01-15T08:01:12;19.50;;;9.02;;
74650;SDS011;63169;46.042;14.592;2024-01-15T08:03:37;20.88;;;13.18;;
74650;SDS011;63169;46.042;14.592;2024-01-15T08:06:03;22.65;;;11.90;;
74650;SDS011;63169;46.042;14.592;2024-01-15T08:08:28;26.95;;;14.63;;
74650;SDS011;63169;46.042;14.592;2024-01-15T08:10:54;38.45;;;17.48;;
74650;SDS011;63169;46.042;14.592;2024-01-15T08:13:19;30.83;;;16.52;;
74650;SDS011;63169;46.042;14.592;2024-01-15T08:15:45;45.33;;;17.80;;
74650;SDS011;63169;46.042;14.592;2024-01-15T08:18:11;25.42;;;14.40;;
74650;SDS011;63169;46.042;14.592;2024-01-15T08:20:37;20.23;;;15.30;;
74650;SDS011;63169;46.042;14.592;2024-01-15T08:23:02;21.60;;;13.57;;
74650;SDS011;63169;46.042;14.592;2024-01-15T08:25:28;18.02;;;13.15;;
74650;SDS011;63169;46.042;14.592;2024-01-15T08:27:54;17.42;;;8.45;;
74650;SDS011;63169;46.042;14.592;2024-01-15T08:30:20;18.73;;;10.63;;
74650;SDS011;63169;46.042;14.592;2024-01-15T08:32:47;18.02;;;11.02;;
74650;SDS011;63169;46.042;14.592;2024-01-15T08:35:12;19.77;;;10.80;;
74650;SDS011;63169;46.042;14.592;2024-01-15T08:37:38;19.50;;;12.10;;
74650;SDS011;63169;46.042;14.592;2024-01-15T08:40:04;19.08;;;11.27;;
74650;SDS011;63169;46.042;14.592;2024-01-15T08:42:29;17.27;;;11.05;;
74650;SDS011;63169;46.042;14.592;2024-01-15T08:44:55;17.80;;;11.45;;
74650;SDS011;63169;46.042;14.592;2024-01-15T08:47:20;23.80;;;12.07;;
74650;SDS011;63169;46.042;14.592;2024-01-15T08:49:46;22.15;;;9.60;;
74650;SDS011;63169;46.042;14.592;2024-01-15T08:52:11;19.50;;;11.55;;
74650;SDS011;63169;46.042;14.592;2024-01-15T08:54:37;22.52;;;11.68;;
74650;SDS011;63169;46.042;14.592;2024-01-15T08:57:03;30.17;;;13.98;;
74650;SDS011;63169;46.042;14.592;2024-01-15T08:59:28;28.80;;;14.57;;
74650;SDS011;63169;46.042;14.592;2024-01-15T09:01:54;24.88;;;14.32;;
74650;SDS011;63169;46.042;14.592;2024-01-15T09:04:22;34.85;;;18.58;;
74650;SDS011;63169;46.042;14.592;2024-01-15T09:06:48;35.22;;;15.45;;
74650;SDS011;63169;46.042;14.592;2024-01-15T09:09:13;53.03;;;26.25;;
74650;SDS011;63169;46.042;14.592;2024-01-15T09:11:40;40.28;;;22.73;;
74650;SDS011;63169;46.042;14.592;2024-01-15T09:14:06;36.50;;;18.45;;
74650;SDS011;63169;46.042;14.592;2024-01-15T09:16:31;33.30;;;18.75;;
74650;SDS011;63169;46.042;14.592;2024-01-15T09:18:57;31.85;;;19.08;;
74650;SDS011;63169;46.042;14.592;2024-01-15T09:21:22;29.65;;;16.70;;
74650;SDS011;63169;46.042;14.592;2024-01-15T09:23:49;29.83;;;18.65;;
74650;SDS011;63169;46.042;14.592;2024-01-15T09:26:15;22.95;;;14.57;;
74650;SDS011;63169;46.042;14.592;2024-01-15T09:28:41;22.88;;;14.43;;
74650;SDS011;63169;46.042;14.592;2024-01-15T09:31:06;22.77;;;13.48;;
74650;SDS011;63169;46.042;14.592;2024-01-15T09:33:32;28.92;;;14.82;;
74650;SDS011;63169;46.042;14.592;2024-01-15T09:36:01;28.60;;;16.92;;
74650;SDS011;63169;46.042;14.592;2024-01-15T09:38:29;25.33;;;18.17;;
74650;SDS011;63169;46.042;14.592;2024-01-15T09:40:57;27.38;;;15.68;;
74650;SDS011;63169;46.042;14.592;2024-01-15T09:43:22;23.30;;;13.35;;
74650;SDS011;63169;46.042;14.592;2024-01-15T09:45:48;20.13;;;13.25;;
74650;SDS011;63169;46.042;14.592;2024-01-15T09:50:41;23.50;;;14.57;;
74650;SDS011;63169;46.042;14.592;2024-01-15T09:53:07;22.70;;;16.17;;
74650;SDS011;63169;46.042;14.592;2024-01-15T09:55:34;22.60;;;13.02;;
74650;SDS011;63169;46.042;14.592;2024-01-15T09:58:02;21.50;;;15.18;;
74650;SDS011;63169;46.042;14.592;2024-01-15T10:00:28;19.40;;;13.18;;
74650;SDS011;63169;46.042;14.592;2024-01-15T10:02:55;24.92;;;16.20;;
74650;SDS011;63169;46.042;14.592;2024-01-15T10:05:21;30.17;;;16.50;;
74650;SDS011;63169;46.042;14.592;2024-01-15T10:07:46;40.53;;;19.40;;
74650;SDS011;63169;46.042;14.592;2024-01-15T10:10:15;43.92;;;24.15;;
74650;SDS011;63169;46.042;14.592;2024-01-15T10:12:40;26.80;;;15.13;;
74650;SDS011;63169;46.042;14.592;2024-01-15T10:15:09;21.45;;;13.48;;
74650;SDS011;63169;46.042;14.592;2024-01-15T10:17:36;21.85;;;13.32;;
74650;SDS011;63169;46.042;14.592;2024-01-15T10:20:11;22.30;;;14.68;;
74650;SDS011;63169;46.042;14.592;2024-01-15T10:22:43;19.20;;;11.95;;
74650;SDS011;63169;46.042;14.592;2024-01-15T10:25:12;26.83;;;11.88;;
74650;SDS011;63169;46.042;14.592;2024-01-15T10:27:38;22.83;;;12.77;;
74650;SDS011;63169;46.042;14.592;2024-01-15T10:30:04;22.58;;;14.73;;
74650;SDS011;63169;46.042;14.592;2024-01-15T10:32:31;23.63;;;12.60;;
74650;SDS011;63169;46.042;14.592;2024-01-15T10:34:56;23.77;;;10.43;;
74650;SDS011;63169;46.042;14.592;2024-01-15T10:37:23;20.40;;;11.13;;
74650;SDS011;63169;46.042;14.592;2024-01-15T10:39:49;20.27;;;11.18;;
74650;SDS011;63169;46.042;14.592;2024-01-15T10:42:15;18.52;;;11.73;;
74650;SDS011;63169;46.042;14.592;2024-01-15T10:44:41;17.38;;;10.27;;
74650;SDS011;63169;46.042;14.592;2024-01-15T10:47:08;19.33;;;9.95;;
74650;SDS011;63169;46.042;14.592;2024-01-15T10:49:33;18.75;;;10.88;;
74650;SDS011;63169;46.042;14.592;2024-01-15T10:52:00;21.30;;;12.95;;
74650;SDS011;63169;46.042;14.592;2024-01-15T10:54:29;19.17;;;11.40;;
74650;SDS011;63169;46.042;14.592;2024-01-15T10:56:55;17.00;;;9.60;;
74650;SDS011;63169;46.042;14.592;2024-01-15T10:59:21;17.40;;;10.68;;
74650;SDS011;63169;46.042;14.592;2024-01-15T11:01:52;19.05;;;10.30;;
74650;SDS011;63169;46.042;14.592;2024-01-15T11:04:19;26.60;;;12.45;;
74650;SDS011;63169;46.042;14.592;2024-01-15T11:06:46;23.75;;;13.40;;
74650;SDS011;63169;46.042;14.592;2024-01-15T11:09:13;21.05;;;12.45;;
74650;SDS011;63169;46.042;14.592;2024-01-15T11:11:40;21.25;;;11.00;;
74650;SDS011;63169;46.042;14.592;2024-01-15T11:14:07;27.27;;;14.15;;
74650;SDS011;63169;46.042;14.592;2024-01-15T11:19:34;22.52;;;12.20;;
74650;SDS011;63169;46.042;14.592;2024-01-15T11:22:01;18.05;;;10.45;;
74650;SDS011;63169;46.042;14.592;2024-01-15T11:24:33;20.90;;;13.48;;
74650;SDS011;63169;46.042;14.592;2024-01-15T11:27:03;23.63;;;12.38;;
74650;SDS011;63169;46.042;14.592;2024-01-15T11:29:30;23.58;;;12.80;;
74650;SDS011;63169;46.042;14.592;2024-01-15T11:31:58;20.38;;;12.75;;
74650;SDS011;63169;46.042;14.592;2024-01-15T11:37:23;23.60;;;12.48;;
74650;SDS011;63169;46.042;14.592;2024-01-15T11:39:50;23.88;;;13.55;;
74650;SDS011;63169;46.042;14.592;2024-01-15T11:42:20;21.77;;;13.10;;
74650;SDS011;63169;46.042;14.592;2024-01-15T11:44:46;24.70;;;13.50;;
74650;SDS011;63169;46.042;14.592;2024-01-15T11:47:12;24.17;;;13.40;;
74650;SDS011;63169;46.042;14.592;2024-01-15T11:52:27;22.25;;;14.63;;
74650;SDS011;63169;46.042;14.592;2024-01-15T11:57:46;21.08;;;13.07;;
74650;SDS011;63169;46.042;14.592;2024-01-15T12:00:14;22.23;;;12.75;;
74650;SDS011;63169;46.042;14.592;2024-01-15T12:02:44;26.45;;;11.60;;
74650;SDS011;63169;46.042;14.592;2024-01-15T12:05:18;26.00;;;13.35;;
74650;SDS011;63169;46.042;14.592;2024-01-15T12:07:44;22.27;;;12.07;;
74650;SDS011;63169;46.042;14.592;2024-01-15T12:15:21;21.05;;;12.45;;
74650;SDS011;63169;46.042;14.592;2024-01-15T12:17:46;24.92;;;13.43;;
74650;SDS011;63169;46.042;14.592;2024-01-15T12:20:12;22.70;;;12.20;;
74650;SDS011;63169;46.042;14.592;2024-01-15T12:22:38;25.02;;;13.85;;
74650;SDS011;63169;46.042;14.592;2024-01-15T12:25:04;24.77;;;13.05;;
74650;SDS011;63169;46.042;14.592;2024-01-15T12:27:29;18.27;;;11.82;;
74650;SDS011;63169;46.042;14.592;2024-01-15T12:29:55;26.58;;;13.25;;
74650;SDS011;63169;46.042;14.592;2024-01-15T12:32:20;19.50;;;10.20;;
74650;SDS011;63169;46.042;14.592;2024-01-15T12:34:48;22.05;;;10.85;;
74650;SDS011;63169;46.042;14.592;2024-01-15T12:37:14;19.33;;;12.63;;
74650;SDS011;63169;46.042;14.592;2024-01-15T12:39:42;21.80;;;12.70;;
74650;SDS011;63169;46.042;14.592;2024-01-15T12:42:08;20.85;;;13.75;;
74650;SDS011;63169;46.042;14.592;2024-01-15T12:44:35;25.85;;;14.50;;
74650;SDS011;63169;46.042;14.592;2024-01-15T12:47:03;19.67;;;11.90;;
74650;SDS011;63169;46.042;14.592;2024-01-15T12:51:58;20.05;;;11.88;;
74650;SDS011;63169;46.042;14.592;2024-01-15T12:54:24;21.98;;;13.10;;
74650;SDS011;63169;46.042;14.592;2024-01-15T12:56:50;30.08;;;10.82;;
74650;SDS011;63169;46.042;14.592;2024-01-15T12:59:16;20.98;;;12.98;;
74650;SDS011;63169;46.042;14.592;2024-01-15T13:01:42;22.50;;;13.27;;
74650;SDS011;63169;46.042;14.592;2024-01-15T13:04:07;24.67;;;13.52;;
74650;SDS011;63169;46.042;14.592;2024-01-15T13:06:36;37.38;;;13.35;;
74650;SDS011;63169;46.042;14.592;2024-01-15T13:09:04;24.55;;;13.13;;
74650;SDS011;63169;46.042;14.592;2024-01-15T13:11:35;26.45;;;13.88;;
74650;SDS011;63169;46.042;14.592;2024-01-15T13:14:00;26.30;;;13.65;;
74650;SDS011;63169;46.042;14.592;2024-01-15T13:16:26;21.30;;;12.10;;
74650;SDS011;63169;46.042;14.592;2024-01-15T13:18:55;20.98;;;11.25;;
74650;SDS011;63169;46.042;14.592;2024-01-15T13:21:21;17.95;;;11.98;;
74650;SDS011;63169;46.042;14.592;2024-01-15T13:23:47;19.13;;;12.13;;
74650;SDS011;63169;46.042;14.592;2024-01-15T13:26:12;18.25;;;10.77;;
74650;SDS011;63169;46.042;14.592;2024-01-15T13:28:38;19.17;;;12.27;;
74650;SDS011;63169;46.042;14.592;2024-01-15T13:31:03;16.23;;;10.18;;
74650;SDS011;63169;46.042;14.592;2024-01-15T13:33:29;18.83;;;10.18;;
74650;SDS011;63169;46.042;14.592;2024-01-15T13:35:55;17.13;;;12.23;;
74650;SDS011;63169;46.042;14.592;2024-01-15T13:38:20;21.58;;;12.55;;
74650;SDS011;63169;46.042;14.592;2024-01-15T13:40:46;27.85;;;13.93;;
74650;SDS011;63169;46.042;14.592;2024-01-15T13:43:11;26.23;;;15.23;;
74650;SDS011;63169;46.042;14.592;2024-01-15T13:45:39;31.48;;;15.95;;
74650;SDS011;63169;46.042;14.592;2024-01-15T13:48:06;25.90;;;17.15;;
74650;SDS011;63169;46.042;14.592;2024-01-15T13:52:58;25.17;;;12.05;;
74650;SDS011;63169;46.042;14.592;2024-01-15T13:55:24;21.67;;;14.35;;
74650;SDS011;63169;46.042;14.592;2024-01-15T13:57:49;24.58;;;15.68;;
74650;SDS011;63169;46.042;14.592;2024-01-15T14:00:14;26.38;;;15.63;;
74650;SDS011;63169;46.042;14.592;2024-01-15T14:02:44;33.45;;;15.82;;
74650;SDS011;63169;46.042;14.592;2024-01-15T14:05:09;25.25;;;15.77;;
74650;SDS011;63169;46.042;14.592;2024-01-15T14:07:37;27.15;;;15.68;;
74650;SDS011;63169;46.042;14.592;2024-01-15T14:10:04;27.13;;;14.20;;
74650;SDS011;63169;46.042;14.592;2024-01-15T14:12:30;32.72;;;17.63;;
74650;SDS011;63169;46.042;14.592;2024-01-15T14:14:56;29.63;;;16.52;;
74650;SDS011;63169;46.042;14.592;2024-01-15T14:17:22;25.88;;;15.45;;
74650;SDS011;63169;46.042;14.592;2024-01-15T14:19:47;18.63;;;10.93;;
74650;SDS011;63169;46.042;14.592;2024-01-15T14:22:12;17.98;;;11.30;;
74650;SDS011;63169;46.042;14.592;2024-01-15T14:24:38;19.92;;;11.82;;
74650;SDS011;63169;46.042;14.592;2024-01-15T14:27:04;18.95;;;11.35;;
74650;SDS011;63169;46.042;14.592;2024-01-15T14:29:30;21.13;;;11.05;;
74650;SDS011;63169;46.042;14.592;2024-01-15T14:31:56;21.30;;;9.32;;
74650;SDS011;63169;46.042;14.592;2024-01-15T14:34:21;21.23;;;13.00;;
74650;SDS011;63169;46.042;14.592;2024-01-15T14:39:14;20.33;;;11.80;;